Time;durP1;ratioP1;P1;durP2;ratioP2;P2;SDS_P1;SDS_P2;PMS_P1;PMS_P2;Temp;Humidity;BMP_temperature;BMP_pressure;BME280_temperature;BME280_humidity;BME280_pressure;Samples;Min_cycle;Max_cycle;Signal;HPM_P1;HPM_P2
2023/03/24 00:00:42;;;;;;;3.80;2.57;;;10.60;99.90;;;;;;5052657;28;20474;-68
2023/03/24 00:03:07;;;;;;;4.60;3.20;;;10.60;99.90;;;;;;5050565;28;20405;-68
2023/03/24 00:05:33;;;;;;;5.60;3.50;;;10.70;99.90;;;;;;5045670;28;20178;-68
2023/03/24 00:08:01;;;;;;;6.00;3.13;;;10.70;99.90;;;;;;5048421;28;20178;-68
2023/03/24 00:10:29;;;;;;;3.60;2.83;;;10.70;99.90;;;;;;5051566;28;20625;-68
2023/03/24 00:12:57;;;;;;;7.03;2.97;;;10.60;99.90;;;;;;5048113;28;20436;-68
2023/03/24 00:15:23;;;;;;;3.07;2.80;;;10.60;99.90;;;;;;5036770;28;20441;-68
2023/03/24 00:17:49;;;;;;;4.93;3.20;;;10.60;99.90;;;;;;5052100;28;20847;-68
2023/03/24 00:20:17;;;;;;;4.33;3.90;;;10.60;99.90;;;;;;5052480;28;20417;-68
2023/03/24 00:22:49;;;;;;;3.13;2.50;;;10.60;99.90;;;;;;5052325;28;20402;-68
2023/03/24 00:25:17;;;;;;;3.00;2.70;;;10.60;99.90;;;;;;5052159;28;20537;-68
2023/03/24 00:27:43;;;;;;;6.70;3.30;;;10.60;99.90;;;;;;5052107;28;20421;-68
2023/03/24 00:30:10;;;;;;;3.37;2.70;;;10.60;99.90;;;;;;5052164;28;20414;-68
2023/03/24 00:32:37;;;;;;;3.30;2.83;;;10.60;99.90;;;;;;5051836;28;20406;-67
2023/03/24 00:35:08;;;;;;;3.57;3.27;;;10.60;99.90;;;;;;5051945;28;20455;-67
2023/03/24 00:37:36;;;;;;;3.60;2.90;;;10.60;99.90;;;;;;5046015;28;20409;-68
2023/03/24 00:40:06;;;;;;;3.30;2.67;;;10.60;99.90;;;;;;5052127;28;20409;-66
2023/03/24 00:42:34;;;;;;;3.80;2.93;;;10.60;99.90;;;;;;5044946;28;20405;-67
2023/03/24 00:45:02;;;;;;;2.70;2.50;;;10.60;99.90;;;;;;5051584;28;20457;-68
2023/03/24 00:47:28;;;;;;;2.73;2.30;;;10.60;99.90;;;;;;5051823;28;20467;-68
2023/03/24 00:49:56;;;;;;;6.67;2.80;;;10.60;99.90;;;;;;5051817;28;20409;-68
2023/03/24 00:52:23;;;;;;;3.70;2.87;;;10.60;99.90;;;;;;5051773;28;20506;-68
2023/03/24 00:54:53;;;;;;;5.03;2.53;;;10.70;99.90;;;;;;5051802;28;20426;-67
2023/03/24 00:57:24;;;;;;;2.83;2.20;;;10.70;99.90;;;;;;5051423;28;20508;-68
2023/03/24 00:59:53;;;;;;;4.17;3.30;;;10.70;99.90;;;;;;5052034;28;20433;-67
2023/03/24 01:02:23;;;;;;;2.90;2.70;;;10.70;99.90;;;;;;5051581;28;20405;-68
2023/03/24 01:04:53;;;;;;;3.53;2.30;;;10.80;99.90;;;;;;5051525;28;20482;-67
2023/03/24 01:07:23;;;;;;;2.77;2.57;;;10.80;99.90;;;;;;5051396;28;20911;-67
2023/03/24 01:09:56;;;;;;;2.40;2.20;;;10.90;99.90;;;;;;5051947;28;20766;-68
2023/03/24 01:12:29;;;;;;;3.00;2.73;;;10.80;99.90;;;;;;5051942;28;20778;-67
2023/03/24 01:14:57;;;;;;;4.93;2.77;;;10.80;99.90;;;;;;5049180;28;20958;-67
2023/03/24 01:17:25;;;;;;;3.90;2.60;;;10.90;99.90;;;;;;5051439;28;20416;-67
2023/03/24 01:19:52;;;;;;;2.50;2.20;;;10.80;99.90;;;;;;5051714;28;20408;-67
2023/03/24 01:22:19;;;;;;;2.50;2.30;;;10.90;99.90;;;;;;5051215;28;20451;-67
2023/03/24 01:24:45;;;;;;;3.10;2.80;;;10.90;99.90;;;;;;5051710;28;21006;-68
2023/03/24 01:27:12;;;;;;;2.50;2.30;;;10.90;99.90;;;;;;5051887;28;20740;-68
2023/03/24 01:29:38;;;;;;;2.27;2.03;;;10.90;99.90;;;;;;5051565;28;20416;-67
2023/03/24 01:32:04;;;;;;;2.37;2.17;;;10.90;99.90;;;;;;5052031;28;20409;-67
2023/03/24 01:34:30;;;;;;;2.37;2.17;;;11.00;99.90;;;;;;5044792;28;20433;-68
2023/03/24 01:36:56;;;;;;;2.67;2.23;;;11.00;99.90;;;;;;5040932;28;20406;-66
2023/03/24 01:39:22;;;;;;;3.17;2.70;;;10.90;99.90;;;;;;5051469;28;20464;-67
2023/03/24 01:41:48;;;;;;;2.77;2.57;;;11.00;99.90;;;;;;5051648;28;20166;-67
2023/03/24 01:44:35;;;;;;;2.53;2.33;;;10.90;99.90;;;;;;5051536;28;20673;-67
2023/03/24 01:47:04;;;;;;;2.30;2.10;;;11.00;99.90;;;;;;5043135;28;20247;-67
2023/03/24 01:49:37;;;;;;;2.73;2.40;;;10.90;99.90;;;;;;5051893;28;20409;-69
2023/03/24 01:52:08;;;;;;;2.80;2.60;;;10.90;99.90;;;;;;5050036;28;20431;-68
2023/03/24 01:54:50;;;;;;;3.57;3.23;;;10.90;99.90;;;;;;5051152;28;20868;-68
2023/03/24 01:57:33;;;;;;;5.83;2.37;;;10.90;99.90;;;;;;5053408;28;20409;-69
2023/03/24 02:00:04;;;;;;;2.17;2.00;;;10.80;99.90;;;;;;5056059;28;20405;-67
2023/03/24 02:02:33;;;;;;;3.17;2.90;;;10.90;99.90;;;;;;5056279;28;20976;-69
2023/03/24 02:05:02;;;;;;;2.43;2.33;;;10.90;99.90;;;;;;5054813;28;20433;-67
2023/03/24 02:07:38;;;;;;;3.20;2.90;;;10.90;99.90;;;;;;5045482;28;20405;-68
2023/03/24 02:10:12;;;;;;;2.97;2.77;;;10.90;99.90;;;;;;5048646;28;20405;-68
2023/03/24 02:12:38;;;;;;;3.47;2.80;;;10.90;99.90;;;;;;5050893;28;20839;-67
2023/03/24 02:15:05;;;;;;;2.90;2.03;;;10.90;99.90;;;;;;5051108;28;20437;-67
2023/03/24 02:17:50;;;;;;;2.80;2.53;;;10.90;99.90;;;;;;5034430;28;20449;-69
2023/03/24 02:20:45;;;;;;;3.50;3.03;;;10.90;99.90;;;;;;5052775;28;20903;-67
2023/03/24 02:23:20;;;;;;;2.90;2.70;;;10.80;99.90;;;;;;5025232;28;20778;-68
2023/03/24 02:26:23;;;;;;;3.20;2.90;;;10.90;99.90;;;;;;5054390;28;20405;-68
2023/03/24 02:29:10;;;;;;;2.37;2.17;;;10.90;99.90;;;;;;5054305;28;20467;-68
2023/03/24 02:32:21;;;;;;;2.30;2.13;;;11.00;99.90;;;;;;5054766;28;20433;-68
2023/03/24 02:35:23;;;;;;;3.87;2.20;;;11.00;99.90;;;;;;5037843;28;21119;-68
2023/03/24 02:38:02;;;;;;;5.53;2.90;;;11.00;99.90;;;;;;5050421;28;20471;-68
2023/03/24 02:40:51;;;;;;;2.57;2.37;;;11.00;99.90;;;;;;5054358;28;20474;-68
2023/03/24 02:43:32;;;;;;;2.60;2.40;;;11.00;99.90;;;;;;5043704;28;20417;-68
2023/03/24 02:46:19;;;;;;;3.37;3.03;;;11.10;99.90;;;;;;5051745;28;20420;-68
2023/03/24 02:48:55;;;;;;;4.50;2.70;;;11.10;99.90;;;;;;5054815;28;20393;-68
2023/03/24 02:51:26;;;;;;;2.20;2.00;;;11.10;99.90;;;;;;5060687;28;20488;-68
2023/03/24 02:54:10;;;;;;;2.50;2.10;;;11.20;99.90;;;;;;5062540;28;20429;-68
2023/03/24 02:56:43;;;;;;;3.20;2.40;;;11.20;99.90;;;;;;5054435;28;20405;-68
2023/03/24 02:59:39;;;;;;;2.40;2.00;;;11.20;99.90;;;;;;5052484;28;20448;-68
2023/03/24 03:02:18;;;;;;;2.60;2.40;;;11.20;99.90;;;;;;5030745;28;20968;-68
2023/03/24 03:04:52;;;;;;;2.50;2.27;;;11.10;99.90;;;;;;5053985;28;20440;-67
2023/03/24 03:07:23;;;;;;;1.90;1.80;;;11.10;99.90;;;;;;5053603;28;20401;-68
2023/03/24 03:10:07;;;;;;;2.57;2.33;;;11.10;99.90;;;;;;5053524;28;20404;-68
2023/03/24 03:12:36;;;;;;;2.87;2.47;;;11.10;99.90;;;;;;5046084;28;21006;-68
2023/03/24 03:15:07;;;;;;;2.80;2.60;;;11.00;99.90;;;;;;5053616;28;20958;-68
2023/03/24 03:17:40;;;;;;;2.67;2.47;;;11.00;99.90;;;;;;5045980;28;20402;-67
2023/03/24 03:20:13;;;;;;;2.43;2.23;;;11.00;99.90;;;;;;5053567;28;20430;-68
2023/03/24 03:22:50;;;;;;;2.90;2.70;;;11.00;99.90;;;;;;5054503;28;20474;-67
2023/03/24 03:25:22;;;;;;;2.77;2.43;;;11.00;99.90;;;;;;5053311;28;20429;-68
2023/03/24 03:27:51;;;;;;;4.53;3.13;;;11.00;99.90;;;;;;5049339;28;20715;-67
2023/03/24 03:30:36;;;;;;;3.97;2.87;;;11.00;99.90;;;;;;5053596;28;20425;-68
2023/03/24 03:33:08;;;;;;;3.13;2.70;;;11.00;99.90;;;;;;5053317;28;20889;-67
2023/03/24 03:35:47;;;;;;;4.03;2.60;;;11.00;99.90;;;;;;5053540;28;20474;-67
2023/03/24 03:38:36;;;;;;;2.93;2.43;;;11.00;99.90;;;;;;5052827;28;20467;-67
2023/03/24 03:41:04;;;;;;;2.40;2.10;;;11.00;99.90;;;;;;5049372;28;20631;-69
2023/03/24 03:43:32;;;;;;;2.97;2.70;;;11.00;99.90;;;;;;5045943;28;20528;-69
2023/03/24 03:45:59;;;;;;;2.90;2.60;;;11.00;99.90;;;;;;5053010;28;20943;-68
2023/03/24 03:48:26;;;;;;;2.27;2.17;;;11.00;99.90;;;;;;5052837;28;20405;-68
2023/03/24 03:50:55;;;;;;;2.73;2.53;;;11.00;99.90;;;;;;5053235;28;20413;-68
2023/03/24 03:53:32;;;;;;;3.07;2.63;;;11.00;99.90;;;;;;5052713;28;20955;-67
2023/03/24 03:55:58;;;;;;;6.57;2.70;;;11.00;99.90;;;;;;5052555;28;20488;-67
2023/03/24 03:58:27;;;;;;;3.30;3.00;;;11.00;99.90;;;;;;5052597;28;20472;-68
2023/03/24 04:00:54;;;;;;;3.10;2.50;;;11.00;99.90;;;;;;5052677;28;20559;-69
2023/03/24 04:03:41;;;;;;;2.60;2.40;;;11.00;99.90;;;;;;5052534;28;20471;-68
2023/03/24 04:06:32;;;;;;;2.63;2.43;;;11.00;99.90;;;;;;5052238;28;20405;-68
2023/03/24 04:09:06;;;;;;;3.10;2.80;;;11.00;99.90;;;;;;5052558;28;20421;-68
2023/03/24 04:12:20;;;;;;;3.27;2.97;;;11.10;99.90;;;;;;5052530;28;20500;-67
2023/03/24 04:15:06;;;;;;;3.30;3.00;;;11.10;99.90;;;;;;5006231;28;20462;-65
2023/03/24 04:17:59;;;;;;;3.50;2.77;;;11.10;99.90;;;;;;5044625;28;20847;-68
2023/03/24 04:20:33;;;;;;;4.13;3.20;;;11.10;99.90;;;;;;5051886;28;20405;-68
2023/03/24 04:23:29;;;;;;;3.67;3.37;;;11.10;99.90;;;;;;5052421;28;20405;-68
2023/03/24 04:26:13;;;;;;;3.40;3.10;;;11.10;99.90;;;;;;5034565;28;20414;-68
2023/03/24 04:28:51;;;;;;;3.67;2.83;;;11.10;99.90;;;;;;5051590;28;20409;-68
2023/03/24 04:31:24;;;;;;;5.03;3.10;;;11.20;99.90;;;;;;5052170;28;20428;-68
2023/03/24 04:34:02;;;;;;;3.50;3.13;;;11.20;99.90;;;;;;5040730;28;20454;-68
2023/03/24 04:36:43;;;;;;;3.43;2.90;;;11.20;99.90;;;;;;5049623;28;20428;-68
2023/03/24 04:39:17;;;;;;;5.50;3.33;;;11.20;99.90;;;;;;5049270;28;20920;-68
2023/03/24 04:41:46;;;;;;;4.10;3.70;;;11.20;99.90;;;;;;5051262;28;20424;-69
2023/03/24 04:44:20;;;;;;;4.73;2.93;;;11.20;99.90;;;;;;5051906;28;20449;-68
2023/03/24 04:46:48;;;;;;;4.13;3.73;;;11.30;99.90;;;;;;5051149;28;20413;-68
2023/03/24 04:49:14;;;;;;;4.37;3.60;;;11.30;99.90;;;;;;5046645;28;20909;-68
2023/03/24 04:51:41;;;;;;;4.30;3.90;;;11.30;99.90;;;;;;5052177;28;20500;-68
2023/03/24 04:54:06;;;;;;;4.47;3.60;;;11.30;99.90;;;;;;5052219;28;20464;-68
2023/03/24 04:56:53;;;;;;;6.60;4.33;;;11.30;99.90;;;;;;5051620;28;20836;-68
2023/03/24 04:59:20;;;;;;;3.53;3.20;;;11.30;99.90;;;;;;5050845;28;20719;-68
2023/03/24 05:01:48;;;;;;;3.23;2.90;;;11.30;99.90;;;;;;5051790;28;20835;-68
2023/03/24 05:04:15;;;;;;;4.80;3.47;;;11.40;99.90;;;;;;5079657;22;20507;-73
2023/03/24 05:06:40;;;;;;;3.40;3.10;;;11.40;99.90;;;;;;5071391;28;20854;-73
2023/03/24 05:09:06;;;;;;;4.70;4.13;;;11.40;99.90;;;;;;5071991;28;20409;-74
2023/03/24 05:11:32;;;;;;;4.77;3.50;;;11.50;99.90;;;;;;5072803;28;20924;-74
2023/03/24 05:13:58;;;;;;;3.40;3.10;;;11.50;99.90;;;;;;5072883;28;20423;-76
2023/03/24 05:16:24;;;;;;;5.27;3.67;;;11.50;99.90;;;;;;5057841;28;20185;-73
2023/03/24 05:18:49;;;;;;;4.20;3.40;;;11.50;99.90;;;;;;5072754;28;20456;-73
2023/03/24 05:21:15;;;;;;;5.70;3.30;;;11.60;99.90;;;;;;5071921;28;20255;-76
2023/03/24 05:23:41;;;;;;;4.10;3.70;;;11.50;99.90;;;;;;5071287;28;20167;-73
2023/03/24 05:26:06;;;;;;;3.50;3.20;;;11.50;99.90;;;;;;5052972;28;20166;-72
2023/03/24 05:28:32;;;;;;;3.47;2.97;;;11.60;99.90;;;;;;5071117;28;20542;-74
2023/03/24 05:31:00;;;;;;;4.00;3.30;;;11.60;99.90;;;;;;5066530;28;20570;-73
2023/03/24 05:33:25;;;;;;;4.77;3.23;;;11.70;99.90;;;;;;5071558;28;20426;-73
2023/03/24 05:35:51;;;;;;;5.43;3.27;;;11.70;99.90;;;;;;5070721;28;20519;-74
2023/03/24 05:38:17;;;;;;;3.73;3.43;;;11.80;99.90;;;;;;5067732;28;20740;-73
2023/03/24 05:40:42;;;;;;;4.27;3.40;;;11.80;99.90;;;;;;5071123;28;20553;-73
2023/03/24 05:43:08;;;;;;;4.80;4.30;;;11.80;99.90;;;;;;5066379;28;20408;-73
2023/03/24 05:45:34;;;;;;;5.30;3.43;;;11.90;99.90;;;;;;5070613;28;20197;-72
2023/03/24 05:48:00;;;;;;;4.10;2.90;;;11.80;99.90;;;;;;5055944;28;20424;-73
2023/03/24 05:50:25;;;;;;;2.90;2.70;;;11.90;99.90;;;;;;5070182;28;20178;-72
2023/03/24 05:52:51;;;;;;;5.10;3.73;;;11.80;99.90;;;;;;5072899;28;20219;-73
2023/03/24 05:55:18;;;;;;;4.33;3.20;;;11.90;99.90;;;;;;5070862;28;20662;-73
2023/03/24 05:57:44;;;;;;;3.73;3.40;;;11.90;99.90;;;;;;5074470;28;20520;-73
2023/03/24 06:00:15;;;;;;;4.87;4.27;;;11.90;99.90;;;;;;5074756;28;20412;-73
2023/03/24 06:02:42;;;;;;;3.10;2.57;;;12.00;99.90;;;;;;5074369;28;20464;-73
2023/03/24 06:05:08;;;;;;;3.90;3.27;;;11.90;99.90;;;;;;5055826;28;20810;-73
2023/03/24 06:07:34;;;;;;;6.13;3.70;;;12.00;99.90;;;;;;5072236;28;20504;-73
2023/03/24 06:10:03;;;;;;;3.70;3.00;;;12.00;99.90;;;;;;5070860;28;20487;-72
2023/03/24 06:12:30;;;;;;;3.83;2.77;;;12.00;99.90;;;;;;5074114;28;20452;-72
2023/03/24 06:14:56;;;;;;;6.23;3.57;;;12.00;99.90;;;;;;5071324;28;20417;-73
2023/03/24 06:17:23;;;;;;;5.73;3.63;;;12.10;99.90;;;;;;5074205;28;20404;-72
2023/03/24 06:19:49;;;;;;;3.50;3.27;;;12.10;99.90;;;;;;5074715;28;20460;-73
2023/03/24 06:22:19;;;;;;;4.33;3.30;;;12.20;99.90;;;;;;5074790;28;20515;-73
2023/03/24 06:24:46;;;;;;;3.43;3.13;;;12.20;99.90;;;;;;5073963;28;20429;-72
2023/03/24 06:27:13;;;;;;;5.23;3.33;;;12.20;99.90;;;;;;5074464;28;20408;-73
2023/03/24 06:29:41;;;;;;;3.67;3.37;;;12.20;99.90;;;;;;5069497;28;20899;-74
2023/03/24 06:32:07;;;;;;;10.97;4.30;;;12.30;99.90;;;;;;5044809;28;20424;-73
2023/03/24 06:34:33;;;;;;;3.27;2.83;;;12.40;99.90;;;;;;5074403;28;20962;-73
2023/03/24 06:36:59;;;;;;;6.43;3.10;;;12.50;99.90;;;;;;5059205;28;20408;-72
2023/03/24 06:39:25;;;;;;;3.60;3.07;;;12.50;99.90;;;;;;5074475;28;20284;-73
2023/03/24 06:41:51;;;;;;;4.30;3.47;;;12.50;99.90;;;;;;5074448;28;20167;-73
2023/03/24 06:44:17;;;;;;;2.60;2.40;;;12.50;99.90;;;;;;5063327;28;20448;-73
2023/03/24 06:46:44;;;;;;;3.97;3.23;;;12.50;99.90;;;;;;5075271;28;20231;-73
2023/03/24 06:49:10;;;;;;;3.20;2.60;;;12.50;99.90;;;;;;5074934;28;20837;-73
2023/03/24 06:51:35;;;;;;;3.77;3.23;;;12.50;99.90;;;;;;5075041;28;20640;-73
2023/03/24 06:54:02;;;;;;;3.57;3.27;;;12.50;99.90;;;;;;5074947;28;20679;-74
2023/03/24 06:56:29;;;;;;;3.97;2.87;;;12.50;99.90;;;;;;5063496;28;20178;-73
2023/03/24 06:58:55;;;;;;;4.50;3.70;;;12.60;99.90;;;;;;5074370;28;20451;-73
2023/03/24 07:01:21;;;;;;;5.30;3.33;;;12.50;99.90;;;;;;5074895;28;20408;-73
2023/03/24 07:03:47;;;;;;;4.00;3.27;;;12.60;99.90;;;;;;5074256;28;20791;-73
2023/03/24 07:06:12;;;;;;;7.20;3.80;;;12.60;99.90;;;;;;5074331;28;20685;-72
2023/03/24 07:08:39;;;;;;;4.20;3.77;;;12.70;99.90;;;;;;5060293;28;20171;-73
2023/03/24 07:11:06;;;;;;;3.57;3.00;;;12.70;99.90;;;;;;5074660;28;20262;-71
2023/03/24 07:13:32;;;;;;;3.13;2.80;;;12.70;99.90;;;;;;5073693;28;20427;-73
2023/03/24 07:15:57;;;;;;;3.50;3.20;;;12.80;99.90;;;;;;5074021;28;20433;-72
2023/03/24 07:18:23;;;;;;;42.47;25.87;;;12.90;99.90;;;;;;5078698;28;20201;-77
2023/03/24 07:20:49;;;;;;;10.87;8.83;;;13.40;99.90;;;;;;5076626;28;20166;-75
2023/03/24 07:23:15;;;;;;;14.20;10.63;;;13.40;99.90;;;;;;5076669;28;20177;-75
2023/03/24 07:25:41;;;;;;;5.30;4.40;;;13.50;99.90;;;;;;5078085;28;20428;-75
2023/03/24 07:28:07;;;;;;;8.57;6.57;;;13.70;99.90;;;;;;5084014;28;20434;-75
2023/03/24 07:30:36;;;;;;;14.00;10.27;;;13.80;99.90;;;;;;5066627;28;20202;-74
2023/03/24 07:33:04;;;;;;;7.57;5.23;;;14.00;99.90;;;;;;5067188;28;20573;-75
2023/03/24 07:35:30;;;;;;;5.73;4.10;;;13.90;99.90;;;;;;5080687;28;20436;-75
2023/03/24 07:38:00;;;;;;;4.03;3.63;;;14.30;99.90;;;;;;5078411;28;20963;-75
2023/03/24 07:40:25;;;;;;;3.73;3.20;;;14.50;99.90;;;;;;5085420;28;20182;-76
2023/03/24 07:42:51;;;;;;;4.73;2.83;;;14.40;99.90;;;;;;5088602;28;20443;-75
2023/03/24 07:45:17;;;;;;;2.90;2.70;;;14.40;99.90;;;;;;5087537;28;20214;-74
2023/03/24 07:47:44;;;;;;;3.00;2.80;;;14.30;99.90;;;;;;5088322;28;20181;-74
2023/03/24 07:50:11;;;;;;;6.70;2.80;;;14.20;99.90;;;;;;5078867;28;20427;-75
2023/03/24 07:52:38;;;;;;;4.13;3.03;;;14.20;99.90;;;;;;5073096;28;20425;-74
2023/03/24 07:55:07;;;;;;;5.37;3.10;;;14.10;99.90;;;;;;5065994;28;20533;-75
2023/03/24 07:57:36;;;;;;;2.57;2.30;;;14.00;99.90;;;;;;5065750;28;20498;-74
2023/03/24 08:00:14;;;;;;;3.73;3.20;;;13.90;99.90;;;;;;5064625;28;20433;-75
2023/03/24 08:02:41;;;;;;;3.57;3.27;;;13.90;99.90;;;;;;5066809;28;20409;-74
2023/03/24 08:05:09;;;;;;;5.73;4.17;;;13.70;99.90;;;;;;5072297;28;20494;-74
2023/03/24 08:07:35;;;;;;;4.30;2.90;;;13.70;99.90;;;;;;5072565;28;20408;-78
2023/03/24 08:10:01;;;;;;;4.07;3.53;;;13.50;99.90;;;;;;5072841;28;20759;-74
2023/03/24 08:12:26;;;;;;;3.53;2.83;;;13.50;99.90;;;;;;5072289;28;20499;-74
2023/03/24 08:14:52;;;;;;;3.50;3.27;;;13.50;99.90;;;;;;5071071;28;20456;-74
2023/03/24 08:17:18;;;;;;;4.30;3.50;;;13.50;99.90;;;;;;5053898;28;20616;-74
2023/03/24 08:19:43;;;;;;;5.53;4.67;;;13.50;99.90;;;;;;5075467;28;20205;-75
2023/03/24 08:22:10;;;;;;;2.90;2.70;;;13.40;99.90;;;;;;5074523;28;20177;-75
2023/03/24 08:24:35;;;;;;;3.83;3.50;;;13.30;99.90;;;;;;5074864;28;20187;-75
2023/03/24 08:27:05;;;;;;;3.20;2.90;;;13.30;99.90;;;;;;5074931;28;20432;-74
2023/03/24 08:29:33;;;;;;;4.80;3.50;;;13.30;99.90;;;;;;5073526;28;20174;-74
2023/03/24 08:32:00;;;;;;;5.67;3.50;;;13.30;99.90;;;;;;5074866;28;20428;-74
2023/03/24 08:34:25;;;;;;;6.67;2.90;;;13.30;99.90;;;;;;5075243;28;20436;-74
2023/03/24 08:36:51;;;;;;;4.80;3.40;;;13.30;99.90;;;;;;5075492;28;20412;-73
2023/03/24 08:39:17;;;;;;;3.90;3.50;;;13.20;99.90;;;;;;5073308;28;20571;-75
2023/03/24 08:41:44;;;;;;;4.97;4.00;;;13.20;99.90;;;;;;5071414;28;20474;-73
2023/03/24 08:44:10;;;;;;;3.77;3.47;;;13.20;99.90;;;;;;5057581;28;20281;-74
2023/03/24 08:46:36;;;;;;;4.80;3.33;;;13.20;99.90;;;;;;5072818;28;20413;-74
2023/03/24 08:49:01;;;;;;;8.60;5.07;;;13.20;99.90;;;;;;5071971;28;20413;-75
2023/03/24 08:51:27;;;;;;;5.23;4.73;;;13.30;99.90;;;;;;5071690;28;20254;-73
2023/03/24 08:53:54;;;;;;;5.90;4.10;;;13.40;99.90;;;;;;5071337;28;20182;-73
2023/03/24 08:56:20;;;;;;;4.63;3.00;;;13.40;99.90;;;;;;5071635;28;20174;-73
2023/03/24 08:58:47;;;;;;;5.20;3.40;;;13.50;99.90;;;;;;5070985;28;20456;-74
2023/03/24 09:01:13;;;;;;;5.70;4.00;;;13.50;99.90;;;;;;5057351;28;20421;-72
2023/03/24 09:03:40;;;;;;;4.13;3.70;;;13.70;99.90;;;;;;5071349;28;20415;-73
2023/03/24 09:06:06;;;;;;;6.77;4.27;;;13.60;99.90;;;;;;5070749;28;20456;-74
2023/03/24 09:08:32;;;;;;;6.93;5.30;;;13.70;99.90;;;;;;5071521;28;20439;-73
2023/03/24 09:10:58;;;;;;;4.10;3.43;;;13.70;99.90;;;;;;5069745;28;20788;-72
2023/03/24 09:13:24;;;;;;;10.17;6.97;;;13.70;99.90;;;;;;5071312;28;20204;-74
2023/03/24 09:15:57;;;;;;;3.47;3.17;;;14.00;99.90;;;;;;5058960;28;20441;-73
2023/03/24 09:18:22;;;;;;;6.37;5.77;;;13.90;99.90;;;;;;5071203;28;20448;-75
2023/03/24 09:20:49;;;;;;;10.17;7.50;;;13.90;99.90;;;;;;5071373;28;20427;-73
2023/03/24 09:23:15;;;;;;;5.13;4.60;;;13.90;99.90;;;;;;5060343;28;20265;-74
2023/03/24 09:25:40;;;;;;;11.60;8.70;;;13.90;99.90;;;;;;5052626;28;20530;-74
2023/03/24 09:28:07;;;;;;;12.53;8.80;;;14.00;99.90;;;;;;5069249;28;20413;-74
2023/03/24 09:30:33;;;;;;;11.23;8.63;;;14.20;99.90;;;;;;5066359;28;20185;-72
2023/03/24 09:32:59;;;;;;;4.80;4.10;;;14.30;99.90;;;;;;5071541;28;20405;-74
2023/03/24 09:35:26;;;;;;;5.30;2.70;;;14.10;99.90;;;;;;5070641;28;20452;-74
2023/03/24 09:37:52;;;;;;;4.63;3.53;;;14.10;99.90;;;;;;5071000;28;20256;-73
2023/03/24 09:40:38;;;;;;;4.40;3.50;;;14.20;99.90;;;;;;5070567;28;20405;-74
2023/03/24 09:43:06;;;;;;;10.30;6.70;;;14.30;99.90;;;;;;5066821;28;20426;-74
2023/03/24 09:45:36;;;;;;;7.50;5.80;;;14.60;99.90;;;;;;5069475;28;20425;-73
2023/03/24 09:48:16;;;;;;;4.30;3.50;;;14.90;99.90;;;;;;5071409;28;20813;-75
2023/03/24 09:50:51;;;;;;;11.00;8.00;;;15.00;99.90;;;;;;5070577;28;20409;-74
2023/03/24 09:53:36;;;;;;;4.67;2.90;;;15.30;99.90;;;;;;5055397;28;20513;-75
2023/03/24 09:56:19;;;;;;;2.67;2.47;;;15.30;99.90;;;;;;5067474;28;20501;-73
2023/03/24 09:58:51;;;;;;;4.60;4.20;;;15.20;99.90;;;;;;5067207;28;20560;-75
2023/03/24 10:01:18;;;;;;;9.60;6.90;;;15.40;99.90;;;;;;5072909;28;20512;-75
2023/03/24 10:03:45;;;;;;;4.70;3.47;;;15.60;99.90;;;;;;5067410;28;20417;-76
2023/03/24 10:06:37;;;;;;;4.97;3.27;;;15.70;99.90;;;;;;5053860;28;20424;-74
2023/03/24 10:09:22;;;;;;;2.87;2.67;;;15.60;99.90;;;;;;5068521;28;20455;-75
2023/03/24 10:11:50;;;;;;;4.50;3.57;;;15.50;99.90;;;;;;5072146;28;20448;-74
2023/03/24 10:14:31;;;;;;;3.53;3.23;;;15.50;99.90;;;;;;5071418;28;20434;-76
2023/03/24 10:16:57;;;;;;;3.17;2.87;;;15.50;99.90;;;;;;5067621;28;20437;-74
2023/03/24 10:19:31;;;;;;;3.30;3.00;;;15.70;99.90;;;;;;5073549;28;20470;-75
2023/03/24 10:22:15;;;;;;;3.10;2.50;;;15.70;99.90;;;;;;5052348;28;20213;-74
2023/03/24 10:24:49;;;;;;;3.43;3.00;;;15.60;99.90;;;;;;5062966;28;20533;-73
2023/03/24 10:27:33;;;;;;;2.47;2.27;;;15.80;99.90;;;;;;5070392;28;20413;-76
2023/03/24 10:30:33;;;;;;;2.50;2.13;;;15.90;99.90;;;;;;5068351;28;20557;-76
2023/03/24 10:32:59;;;;;;;6.03;2.50;;;16.00;99.90;;;;;;5022208;28;20891;-78
2023/03/24 10:35:32;;;;;;;2.87;2.57;;;15.90;99.90;;;;;;5075919;28;20440;-73
2023/03/24 10:38:01;;;;;;;2.53;2.33;;;16.30;99.90;;;;;;5057593;28;20746;-74
2023/03/24 10:40:32;;;;;;;4.53;2.73;;;16.50;99.90;;;;;;5074232;28;20453;-74
2023/03/24 10:43:00;;;;;;;3.50;3.20;;;16.50;99.90;;;;;;5074633;28;20491;-75
2023/03/24 10:45:29;;;;;;;3.27;2.27;;;16.90;99.90;;;;;;5072667;28;20492;-75
2023/03/24 10:47:58;;;;;;;2.80;2.60;;;16.70;99.90;;;;;;5073974;28;20402;-74
2023/03/24 10:50:27;;;;;;;5.50;4.87;;;17.10;99.90;;;;;;5073330;28;20408;-73
2023/03/24 10:52:54;;;;;;;23.67;18.23;;;16.70;99.90;;;;;;5074033;28;20880;-73
2023/03/24 10:55:23;;;;;;;9.63;8.23;;;16.90;99.90;;;;;;5054376;28;20535;-75
2023/03/24 10:57:59;;;;;;;4.30;3.60;;;16.40;99.90;;;;;;5071387;28;20412;-74
2023/03/24 11:00:31;;;;;;;2.33;2.13;;;16.20;99.90;;;;;;5073518;28;20476;-73
2023/03/24 11:03:07;;;;;;;3.23;2.00;;;16.00;99.90;;;;;;5073465;28;20726;-74
2023/03/24 11:05:36;;;;;;;2.30;2.07;;;16.20;99.90;;;;;;5068502;28;20958;-74
2023/03/24 11:08:28;;;;;;;3.57;3.27;;;16.30;99.90;;;;;;5074739;28;20421;-74
2023/03/24 11:10:54;;;;;;;3.70;2.70;;;16.50;99.90;;;;;;5070904;28;20756;-73
2023/03/24 11:13:24;;;;;;;3.23;2.73;;;16.30;99.90;;;;;;5073338;28;20450;-73
2023/03/24 11:16:09;;;;;;;2.60;2.20;;;16.30;99.90;;;;;;5073513;28;20466;-74
2023/03/24 11:18:34;;;;;;;2.37;2.10;;;16.30;99.90;;;;;;5048101;28;20459;-73
2023/03/24 11:21:03;;;;;;;2.43;2.23;;;16.30;99.90;;;;;;5073119;28;20415;-73
2023/03/24 11:23:41;;;;;;;4.00;2.17;;;16.50;99.90;;;;;;5073231;28;20174;-73
2023/03/24 11:26:27;;;;;;;3.90;2.30;;;16.50;99.90;;;;;;5073158;28;20751;-73
2023/03/24 11:28:56;;;;;;;4.07;2.00;;;16.50;99.90;;;;;;5049233;28;20419;-74
2023/03/24 11:31:25;;;;;;;3.70;2.70;;;17.00;99.90;;;;;;5071560;28;20408;-74
2023/03/24 11:34:01;;;;;;;3.07;2.03;;;17.00;99.90;;;;;;5054784;28;20587;-72
2023/03/24 11:36:31;;;;;;;2.33;2.13;;;17.10;99.90;;;;;;5087469;22;20476;-73
2023/03/24 11:39:11;;;;;;;3.67;2.23;;;16.90;99.90;;;;;;5080380;28;20460;-72
2023/03/24 11:41:39;;;;;;;2.53;1.90;;;16.90;99.90;;;;;;5055841;28;20454;-73
2023/03/24 11:44:24;;;;;;;2.80;2.20;;;16.80;99.90;;;;;;5054329;28;20409;-73
2023/03/24 11:46:57;;;;;;;3.10;2.30;;;17.10;99.90;;;;;;5072543;28;20514;-73
2023/03/24 11:49:28;;;;;;;3.53;2.13;;;17.00;99.90;;;;;;5072693;28;20413;-73
2023/03/24 11:51:54;;;;;;;1.93;1.83;;;16.90;99.90;;;;;;5034880;28;20426;-73
2023/03/24 11:54:26;;;;;;;3.00;2.50;;;16.90;99.90;;;;;;5052040;28;20430;-73
2023/03/24 11:56:55;;;;;;;2.30;2.17;;;16.90;99.90;;;;;;5072192;28;20430;-74
2023/03/24 11:59:28;;;;;;;2.70;1.90;;;16.90;99.90;;;;;;5073382;28;20460;-73
2023/03/24 12:02:00;;;;;;;2.23;2.03;;;16.80;99.90;;;;;;5072727;28;20412;-73
2023/03/24 12:04:40;;;;;;;2.50;2.30;;;16.80;99.90;;;;;;5072826;28;20506;-73
2023/03/24 12:07:40;;;;;;;4.23;2.67;;;16.90;99.90;;;;;;5052472;28;20446;-73
2023/03/24 12:10:29;;;;;;;3.20;2.10;;;17.00;99.90;;;;;;5071177;28;20470;-73
2023/03/24 12:13:02;;;;;;;2.27;2.07;;;17.00;99.90;;;;;;5054831;28;20921;-73
2023/03/24 12:15:43;;;;;;;2.57;2.30;;;17.00;99.90;;;;;;5072295;28;20409;-73
2023/03/24 12:18:26;;;;;;;2.10;1.90;;;17.10;99.90;;;;;;5054332;28;20539;-72
2023/03/24 12:21:11;;;;;;;2.20;2.00;;;17.20;99.90;;;;;;5067644;28;20417;-74
2023/03/24 12:23:55;;;;;;;2.70;1.73;;;17.00;99.90;;;;;;5066878;28;20499;-74
2023/03/24 12:26:32;;;;;;;3.20;2.90;;;17.20;99.90;;;;;;5072690;28;20431;-74
2023/03/24 12:29:09;;;;;;;4.33;2.23;;;17.30;99.90;;;;;;5073198;28;20964;-74
2023/03/24 12:31:52;;;;;;;2.37;2.17;;;16.90;99.90;;;;;;5061677;28;20716;-73
2023/03/24 12:34:36;;;;;;;3.40;3.17;;;16.70;99.90;;;;;;5071586;28;20408;-72
2023/03/24 12:37:17;;;;;;;2.07;1.87;;;16.70;99.90;;;;;;5071588;28;20452;-74
2023/03/24 12:40:08;;;;;;;2.40;2.07;;;16.60;99.90;;;;;;5059139;28;20452;-72
2023/03/24 12:42:44;;;;;;;2.27;2.07;;;16.30;99.90;;;;;;5066218;28;20503;-72
2023/03/24 12:45:37;;;;;;;2.40;1.83;;;16.40;99.90;;;;;;5075684;28;20413;-72
2023/03/24 12:48:23;;;;;;;2.63;2.07;;;16.30;99.90;;;;;;5071310;28;20440;-73
2023/03/24 12:51:19;;;;;;;2.07;1.90;;;16.60;99.90;;;;;;5056942;28;20420;-72
2023/03/24 12:54:04;;;;;;;1.90;1.80;;;16.30;99.90;;;;;;5061992;28;20418;-72
2023/03/24 12:56:39;;;;;;;1.97;1.87;;;16.40;99.90;;;;;;5072419;28;20495;-73
2023/03/24 12:59:37;;;;;;;2.03;1.93;;;16.30;99.90;;;;;;5071305;28;20989;-73
2023/03/24 13:02:18;;;;;;;2.33;2.13;;;16.20;99.90;;;;;;5066205;28;20420;-73
2023/03/24 13:04:47;;;;;;;2.70;1.97;;;16.20;99.90;;;;;;5066467;28;20418;-73
2023/03/24 13:07:17;;;;;;;5.23;2.10;;;16.30;99.90;;;;;;5067727;28;20434;-74
2023/03/24 13:10:05;;;;;;;2.60;1.90;;;16.10;99.90;;;;;;5071304;28;20829;-73